KLM809 EHAM-WIII
Flight info
| Callsign | KLM809 |
|---|---|
| Flight time | N/A |
| Altitude | 35000 |
| Route | ARNEM L620 BIRKA Z21 OMELO DCT EVIKU DCT ODNEM DCT ERGOM DCT DEGET DCT RIXEN UL605 YAVRU UL615 ERZ UT309 VIRAN UW27 KAR UT165 REBLO M11 LUSAL/N0488F370 N199 RASAM L88 METKA B143 KRS B701 TUGTA A909 BABUM A477 AKRAM R226 MANAT/K0926F370 Z777 INDUD M875 AMDAR/N0502F370 M875 KHOLM DCT 3532N06818E 3425N06902E 3403N06952E DCT LAJAK L509 HANGU J139 NONIB L509 INDEK J121 AKBER T400 SULOM L509 ASARI J24 DPN L759 KKJ W138 BEGUM/N0496F390 W138 RRP W66 VVZ L301 DOGEM L510 GIVAL P628 VPL W531 VIH A464 DAKUS/N0488F410 A464 VKL Y507 MAKNA Y511 TOPOR A464 ARAMA P501 POSOG B469 BIDAK |
| Aircraft | B789/H-SDE1E2E3FGHIJ2J3J4J5M1RWXY/LB1D1 |
Departure
| Time | N/A |
|---|---|
| Airport | Amsterdam Airport Schiphol (EHAM) |
Arrival
| Time | 2026-05-01 15:08 |
|---|---|
| Airport | Soekarno-Hatta International Airport (WIII) |
| Time | Latitude | Longitude | Altitude | Speed | Heading |
|---|---|---|---|---|---|
| 2026-05-01 12:47 | 7.18680 | 97.24124 | 40877 ft | 482 kts | 104° |
| 2026-05-01 12:47 | 7.17072 | 97.30680 | 40876 ft | 482 kts | 104° |
| 2026-05-01 12:48 | 7.15463 | 97.37233 | 40870 ft | 482 kts | 104° |
| 2026-05-01 12:48 | 7.13853 | 97.43786 | 40874 ft | 482 kts | 104° |
| 2026-05-01 12:49 | 7.12243 | 97.50336 | 40873 ft | 482 kts | 104° |
| 2026-05-01 12:49 | 7.10641 | 97.56848 | 40864 ft | 482 kts | 104° |
| 2026-05-01 12:50 | 7.09289 | 97.62338 | 40870 ft | 482 kts | 104° |
| 2026-05-01 12:50 | 7.07685 | 97.68851 | 40866 ft | 482 kts | 104° |
| 2026-05-01 12:51 | 7.06071 | 97.75404 | 40867 ft | 482 kts | 105° |
| 2026-05-01 12:52 | 7.03645 | 97.85239 | 40870 ft | 482 kts | 105° |
| 2026-05-01 12:52 | 7.01219 | 97.95067 | 40868 ft | 482 kts | 105° |
| 2026-05-01 12:53 | 6.98288 | 98.04667 | 40864 ft | 481 kts | 111° |
| 2026-05-01 12:54 | 6.95955 | 98.10989 | 40869 ft | 482 kts | 111° |
| 2026-05-01 12:54 | 6.92462 | 98.20486 | 40868 ft | 483 kts | 111° |
| 2026-05-01 12:55 | 6.88963 | 98.29991 | 40874 ft | 483 kts | 111° |
| 2026-05-01 12:56 | 6.86349 | 98.36137 | 40901 ft | 480 kts | 125° |
| 2026-05-01 12:56 | 6.84288 | 98.38762 | 40901 ft | 479 kts | 137° |
| 2026-05-01 12:56 | 6.81792 | 98.40975 | 40865 ft | 479 kts | 142° |
| 2026-05-01 12:57 | 6.76566 | 98.45126 | 40873 ft | 478 kts | 139° |
| 2026-05-01 12:57 | 6.69158 | 98.51836 | 40872 ft | 477 kts | 140° |
| 2026-05-01 12:58 | 6.64140 | 98.56179 | 40871 ft | 476 kts | 139° |
| 2026-05-01 12:59 | 6.56729 | 98.62734 | 40873 ft | 475 kts | 140° |
| 2026-05-01 12:59 | 6.49261 | 98.69318 | 40878 ft | 477 kts | 140° |
| 2026-05-01 13:00 | 6.41756 | 98.75914 | 40887 ft | 478 kts | 140° |
| 2026-05-01 13:01 | 6.34297 | 98.82476 | 40871 ft | 476 kts | 140° |
| 2026-05-01 13:02 | 6.26831 | 98.89041 | 40866 ft | 474 kts | 140° |
| 2026-05-01 13:07 | 5.71952 | 99.37217 | 40880 ft | 477 kts | 139° |
| 2026-05-01 13:08 | 5.66988 | 99.41568 | 40879 ft | 477 kts | 139° |
| 2026-05-01 13:08 | 5.61994 | 99.45944 | 40881 ft | 477 kts | 138° |
| 2026-05-01 13:09 | 5.57000 | 99.50320 | 40878 ft | 476 kts | 138° |
| 2026-05-01 13:09 | 5.52006 | 99.54695 | 40879 ft | 476 kts | 138° |
| 2026-05-01 13:10 | 5.47009 | 99.59070 | 40879 ft | 477 kts | 138° |
| 2026-05-01 13:10 | 5.41994 | 99.63461 | 40888 ft | 479 kts | 138° |
| 2026-05-01 13:11 | 5.37000 | 99.67833 | 40894 ft | 481 kts | 138° |
| 2026-05-01 13:11 | 5.31950 | 99.72251 | 40895 ft | 482 kts | 138° |
| 2026-05-01 13:12 | 5.26903 | 99.76668 | 40900 ft | 481 kts | 138° |
| 2026-05-01 13:12 | 5.21869 | 99.81071 | 40891 ft | 480 kts | 138° |
| 2026-05-01 13:13 | 5.16843 | 99.85466 | 40889 ft | 479 kts | 138° |
| 2026-05-01 13:13 | 5.11850 | 99.89832 | 40884 ft | 479 kts | 138° |
| 2026-05-01 13:14 | 5.06815 | 99.94233 | 40893 ft | 481 kts | 138° |
| 2026-05-01 13:14 | 5.01758 | 99.98653 | 40891 ft | 483 kts | 138° |
| 2026-05-01 13:15 | 4.96681 | 100.03090 | 40898 ft | 485 kts | 138° |
| 2026-05-01 13:15 | 4.91600 | 100.07528 | 40895 ft | 484 kts | 138° |
| 2026-05-01 13:16 | 4.86533 | 100.11953 | 40892 ft | 482 kts | 138° |
| 2026-05-01 13:16 | 4.81491 | 100.16356 | 40882 ft | 480 kts | 138° |
| 2026-05-01 13:17 | 4.71439 | 100.25131 | 40881 ft | 481 kts | 138° |
| 2026-05-01 13:18 | 4.63860 | 100.31745 | 40882 ft | 482 kts | 138° |
| 2026-05-01 13:18 | 4.58801 | 100.36159 | 40884 ft | 482 kts | 138° |
| 2026-05-01 13:19 | 4.53772 | 100.40546 | 40879 ft | 483 kts | 138° |
| 2026-05-01 13:20 | 4.46168 | 100.47177 | 40877 ft | 483 kts | 138° |
| 2026-05-01 13:20 | 4.41092 | 100.51603 | 40874 ft | 484 kts | 138° |
| 2026-05-01 13:21 | 4.33484 | 100.58233 | 40867 ft | 482 kts | 138° |
| 2026-05-01 13:21 | 4.28466 | 100.62607 | 40861 ft | 481 kts | 138° |
| 2026-05-01 13:22 | 4.23427 | 100.66997 | 40859 ft | 479 kts | 138° |
| 2026-05-01 13:22 | 4.18390 | 100.71385 | 40855 ft | 480 kts | 138° |
| 2026-05-01 13:23 | 4.13355 | 100.75770 | 40860 ft | 480 kts | 138° |
| 2026-05-01 13:23 | 4.08306 | 100.80168 | 40866 ft | 481 kts | 138° |
| 2026-05-01 13:24 | 4.03283 | 100.84540 | 40869 ft | 482 kts | 138° |
| 2026-05-01 13:25 | 3.95689 | 100.91151 | 40880 ft | 482 kts | 138° |
| 2026-05-01 13:25 | 3.90623 | 100.95560 | 40883 ft | 482 kts | 138° |
| 2026-05-01 13:26 | 3.85593 | 100.99937 | 40882 ft | 482 kts | 138° |
| 2026-05-01 13:26 | 3.80530 | 101.04342 | 40879 ft | 481 kts | 138° |
| 2026-05-01 13:27 | 3.75481 | 101.08734 | 40880 ft | 480 kts | 138° |
| 2026-05-01 13:27 | 3.67924 | 101.15306 | 40878 ft | 480 kts | 138° |
| 2026-05-01 13:28 | 3.60391 | 101.21856 | 40885 ft | 481 kts | 138° |
| 2026-05-01 13:29 | 3.50289 | 101.30638 | 40894 ft | 481 kts | 138° |
| 2026-05-01 13:31 | 3.35129 | 101.43811 | 40898 ft | 483 kts | 138° |
| 2026-05-01 13:31 | 3.26513 | 101.48859 | 40895 ft | 485 kts | 154° |
| 2026-05-01 13:32 | 3.20404 | 101.51676 | 40894 ft | 483 kts | 154° |
| 2026-05-01 13:33 | 3.05277 | 101.58658 | 40892 ft | 482 kts | 154° |
| 2026-05-01 13:34 | 2.93057 | 101.64297 | 40879 ft | 485 kts | 154° |
| 2026-05-01 13:35 | 2.83872 | 101.68534 | 40867 ft | 483 kts | 154° |
| 2026-05-01 13:36 | 2.74735 | 101.72748 | 40860 ft | 481 kts | 154° |
| 2026-05-01 13:36 | 2.65726 | 101.77077 | 40870 ft | 483 kts | 154° |
| 2026-05-01 13:37 | 2.59681 | 101.80011 | 40876 ft | 483 kts | 153° |
| 2026-05-01 13:37 | 2.53920 | 101.83401 | 40893 ft | 481 kts | 137° |
| 2026-05-01 13:38 | 2.47561 | 101.91089 | 40906 ft | 479 kts | 126° |
| 2026-05-01 13:39 | 2.43565 | 101.96407 | 40907 ft | 478 kts | 126° |
| 2026-05-01 13:39 | 2.39564 | 102.01716 | 40911 ft | 477 kts | 126° |
| 2026-05-01 13:40 | 2.35600 | 102.06979 | 40903 ft | 477 kts | 126° |
| 2026-05-01 13:40 | 2.31614 | 102.12271 | 40900 ft | 476 kts | 126° |
| 2026-05-01 13:41 | 2.27631 | 102.17556 | 40897 ft | 476 kts | 126° |
| 2026-05-01 13:41 | 2.23639 | 102.22854 | 40896 ft | 478 kts | 126° |
| 2026-05-01 13:42 | 2.19637 | 102.28165 | 40890 ft | 479 kts | 126° |
| 2026-05-01 13:42 | 2.15625 | 102.33488 | 40900 ft | 479 kts | 126° |
| 2026-05-01 13:43 | 2.11651 | 102.38761 | 40906 ft | 477 kts | 126° |
| 2026-05-01 13:43 | 2.07659 | 102.44056 | 40916 ft | 476 kts | 126° |
| 2026-05-01 13:44 | 2.03682 | 102.49332 | 40918 ft | 475 kts | 126° |
| 2026-05-01 13:44 | 1.99703 | 102.54612 | 40922 ft | 476 kts | 126° |
| 2026-05-01 13:45 | 1.95721 | 102.59902 | 40920 ft | 477 kts | 126° |
| 2026-05-01 13:45 | 1.91755 | 102.65164 | 40920 ft | 477 kts | 126° |
| 2026-05-01 13:46 | 1.87770 | 102.70455 | 40920 ft | 478 kts | 126° |
| 2026-05-01 13:46 | 1.83757 | 102.75782 | 40920 ft | 479 kts | 126° |
| 2026-05-01 13:47 | 1.79748 | 102.81103 | 40921 ft | 479 kts | 126° |
| 2026-05-01 13:47 | 1.75735 | 102.86429 | 40919 ft | 480 kts | 126° |
| 2026-05-01 13:48 | 1.72151 | 102.92020 | 40907 ft | 479 kts | 117° |
| 2026-05-01 13:48 | 1.69039 | 102.97856 | 40915 ft | 478 kts | 117° |
| 2026-05-01 13:49 | 1.65913 | 103.03722 | 40916 ft | 478 kts | 117° |
| 2026-05-01 13:49 | 1.62728 | 103.09543 | 40937 ft | 477 kts | 125° |
| 2026-05-01 13:49 | 1.60629 | 103.12114 | 40934 ft | 479 kts | 136° |
| 2026-05-01 13:50 | 1.58062 | 103.14248 | 40939 ft | 482 kts | 146° |
| 2026-05-01 13:50 | 1.52455 | 103.17954 | 40914 ft | 484 kts | 146° |
| 2026-05-01 13:51 | 1.46872 | 103.21606 | 40905 ft | 482 kts | 146° |
| 2026-05-01 13:51 | 1.41278 | 103.25293 | 40905 ft | 481 kts | 146° |
| 2026-05-01 13:52 | 1.35679 | 103.28966 | 40907 ft | 482 kts | 146° |
| 2026-05-01 13:52 | 1.30060 | 103.32661 | 40906 ft | 484 kts | 146° |
| 2026-05-01 13:53 | 1.24423 | 103.36367 | 40903 ft | 486 kts | 145° |
| 2026-05-01 13:53 | 1.16039 | 103.41952 | 40903 ft | 484 kts | 146° |
| 2026-05-01 13:54 | 1.10432 | 103.45668 | 40899 ft | 483 kts | 145° |
| 2026-05-01 13:54 | 1.04857 | 103.49408 | 40904 ft | 481 kts | 140° |
| 2026-05-01 13:55 | 1.00062 | 103.54054 | 40905 ft | 481 kts | 133° |
| 2026-05-01 13:55 | 0.95451 | 103.58849 | 40904 ft | 482 kts | 133° |
| 2026-05-01 13:56 | 0.90779 | 103.63659 | 40906 ft | 482 kts | 133° |
| 2026-05-01 13:56 | 0.86119 | 103.68482 | 40905 ft | 482 kts | 133° |
| 2026-05-01 13:57 | 0.82242 | 103.72483 | 40908 ft | 482 kts | 133° |
| 2026-05-01 13:57 | 0.76819 | 103.78087 | 40907 ft | 482 kts | 133° |
| 2026-05-01 13:58 | 0.72159 | 103.82901 | 40911 ft | 482 kts | 133° |
| 2026-05-01 13:58 | 0.67498 | 103.87716 | 40916 ft | 482 kts | 133° |
| 2026-05-01 13:59 | 0.62845 | 103.92523 | 40912 ft | 481 kts | 133° |
| 2026-05-01 13:59 | 0.58189 | 103.97331 | 40920 ft | 481 kts | 133° |
| 2026-05-01 14:00 | 0.53569 | 104.02103 | 40920 ft | 481 kts | 133° |
| 2026-05-01 14:00 | 0.48913 | 104.06909 | 40920 ft | 481 kts | 133° |
| 2026-05-01 14:01 | 0.44265 | 104.11707 | 40926 ft | 480 kts | 133° |
| 2026-05-01 14:01 | 0.39621 | 104.16501 | 40914 ft | 480 kts | 133° |
| 2026-05-01 14:02 | 0.34930 | 104.21181 | 40941 ft | 480 kts | 142° |
| 2026-05-01 14:02 | 0.29093 | 104.24417 | 40924 ft | 484 kts | 155° |
| 2026-05-01 14:03 | 0.22903 | 104.27062 | 40920 ft | 484 kts | 155° |
| 2026-05-01 14:03 | 0.16731 | 104.29712 | 40920 ft | 482 kts | 155° |
| 2026-05-01 14:04 | 0.10614 | 104.32337 | 40922 ft | 481 kts | 155° |
| 2026-05-01 14:04 | 0.05507 | 104.34525 | 40926 ft | 480 kts | 155° |
| 2026-05-01 14:05 | -0.01681 | 104.37610 | 40944 ft | 482 kts | 155° |
| 2026-05-01 14:05 | -0.07850 | 104.40256 | 40935 ft | 483 kts | 155° |
| 2026-05-01 14:06 | -0.13988 | 104.42889 | 40937 ft | 484 kts | 155° |
| 2026-05-01 14:06 | -0.20172 | 104.45542 | 40931 ft | 483 kts | 155° |
| 2026-05-01 14:07 | -0.26347 | 104.48191 | 40927 ft | 483 kts | 155° |
| 2026-05-01 14:08 | -0.35548 | 104.52137 | 40924 ft | 481 kts | 155° |
| 2026-05-01 14:08 | -0.41700 | 104.54777 | 40922 ft | 481 kts | 155° |
| 2026-05-01 14:09 | -0.47850 | 104.57414 | 40921 ft | 481 kts | 155° |
| 2026-05-01 14:09 | -0.54082 | 104.59891 | 40927 ft | 483 kts | 156° |
| 2026-05-01 14:10 | -0.60288 | 104.62394 | 40932 ft | 485 kts | 157° |
| 2026-05-01 14:10 | -0.66564 | 104.64870 | 40924 ft | 485 kts | 156° |
| 2026-05-01 14:11 | -0.72823 | 104.67375 | 40929 ft | 485 kts | 156° |
| 2026-05-01 14:11 | -0.82222 | 104.71111 | 40924 ft | 485 kts | 156° |
| 2026-05-01 14:12 | -0.88480 | 104.73604 | 40927 ft | 485 kts | 156° |
| 2026-05-01 14:12 | -0.94747 | 104.76098 | 40925 ft | 485 kts | 156° |
| 2026-05-01 14:13 | -0.99952 | 104.78171 | 40919 ft | 485 kts | 156° |
| 2026-05-01 14:13 | -1.07229 | 104.81068 | 40920 ft | 484 kts | 156° |
| 2026-05-01 14:14 | -1.13490 | 104.83561 | 40922 ft | 484 kts | 156° |
| 2026-05-01 14:14 | -1.19748 | 104.86053 | 40919 ft | 484 kts | 156° |
| 2026-05-01 14:15 | -1.25958 | 104.88526 | 40921 ft | 484 kts | 156° |
| 2026-05-01 14:15 | -1.32210 | 104.91016 | 40918 ft | 484 kts | 157° |
| 2026-05-01 14:16 | -1.38461 | 104.93505 | 40917 ft | 483 kts | 157° |
| 2026-05-01 14:16 | -1.44708 | 104.95994 | 40914 ft | 483 kts | 157° |
| 2026-05-01 14:17 | -1.50911 | 104.98465 | 40915 ft | 483 kts | 157° |
| 2026-05-01 14:17 | -1.57154 | 105.00951 | 40914 ft | 482 kts | 157° |
| 2026-05-01 14:18 | -1.63388 | 105.03435 | 40913 ft | 483 kts | 157° |
| 2026-05-01 14:18 | -1.68582 | 105.05504 | 40917 ft | 484 kts | 157° |
| 2026-05-01 14:19 | -1.75856 | 105.08402 | 40918 ft | 484 kts | 157° |
| 2026-05-01 14:19 | -1.82115 | 105.10895 | 40920 ft | 483 kts | 157° |
| 2026-05-01 14:20 | -1.91474 | 105.14625 | 40918 ft | 484 kts | 157° |
| 2026-05-01 14:21 | -1.97730 | 105.17118 | 40925 ft | 483 kts | 157° |
| 2026-05-01 14:21 | -2.03915 | 105.19583 | 40916 ft | 482 kts | 157° |
| 2026-05-01 14:22 | -2.13252 | 105.23305 | 40915 ft | 482 kts | 157° |
| 2026-05-01 14:22 | -2.19479 | 105.25787 | 40913 ft | 482 kts | 157° |
| 2026-05-01 14:23 | -2.25678 | 105.28259 | 40909 ft | 483 kts | 157° |
| 2026-05-01 14:23 | -2.31924 | 105.30749 | 40916 ft | 484 kts | 157° |
| 2026-05-01 14:24 | -2.38180 | 105.33244 | 40915 ft | 484 kts | 157° |
| 2026-05-01 14:24 | -2.44436 | 105.35739 | 40919 ft | 484 kts | 157° |
| 2026-05-01 14:25 | -2.50702 | 105.38238 | 40916 ft | 485 kts | 157° |
| 2026-05-01 14:25 | -2.56858 | 105.40841 | 40896 ft | 484 kts | 157° |
| 2026-05-01 14:26 | -2.66164 | 105.44743 | 40898 ft | 483 kts | 156° |
| 2026-05-01 14:27 | -2.72354 | 105.47362 | 40897 ft | 483 kts | 156° |
| 2026-05-01 14:27 | -2.78543 | 105.49977 | 40893 ft | 483 kts | 156° |
| 2026-05-01 14:28 | -2.87802 | 105.53895 | 40888 ft | 482 kts | 156° |
| 2026-05-01 14:28 | -2.93935 | 105.56494 | 40886 ft | 482 kts | 156° |
| 2026-05-01 14:29 | -3.00120 | 105.59110 | 40889 ft | 482 kts | 156° |
| 2026-05-01 14:30 | -3.12474 | 105.64341 | 40907 ft | 484 kts | 156° |
| 2026-05-01 14:31 | -3.21732 | 105.68261 | 40910 ft | 484 kts | 156° |
| 2026-05-01 14:31 | -3.27940 | 105.70890 | 40911 ft | 484 kts | 156° |
| 2026-05-01 14:32 | -3.34137 | 105.73516 | 40912 ft | 483 kts | 156° |
| 2026-05-01 14:32 | -3.40323 | 105.76136 | 40913 ft | 482 kts | 156° |
| 2026-05-01 14:33 | -3.46459 | 105.78736 | 40899 ft | 481 kts | 156° |
| 2026-05-01 14:33 | -3.52631 | 105.81352 | 40900 ft | 482 kts | 156° |
| 2026-05-01 14:34 | -3.58824 | 105.83976 | 40898 ft | 484 kts | 156° |
| 2026-05-01 14:34 | -3.65030 | 105.86607 | 40912 ft | 485 kts | 156° |
| 2026-05-01 14:35 | -3.71188 | 105.89217 | 40919 ft | 483 kts | 156° |
| 2026-05-01 14:35 | -3.77376 | 105.91841 | 40905 ft | 482 kts | 156° |
| 2026-05-01 14:36 | -3.83565 | 105.94466 | 40908 ft | 484 kts | 156° |
| 2026-05-01 14:36 | -3.86667 | 105.95781 | 40672 ft | 486 kts | 156° |
| 2026-05-01 14:36 | -3.89788 | 105.97105 | 40201 ft | 488 kts | 156° |
| 2026-05-01 14:36 | -3.92911 | 105.98430 | 39728 ft | 487 kts | 156° |
| 2026-05-01 14:37 | -3.95980 | 105.99731 | 39268 ft | 485 kts | 156° |
| 2026-05-01 14:37 | -3.99082 | 106.01048 | 38821 ft | 485 kts | 156° |
| 2026-05-01 14:37 | -4.02195 | 106.02369 | 38334 ft | 486 kts | 156° |
| 2026-05-01 14:37 | -4.05176 | 106.03949 | 37876 ft | 486 kts | 144° |
| 2026-05-01 14:38 | -4.07942 | 106.05913 | 37393 ft | 489 kts | 143° |
| 2026-05-01 14:38 | -4.10708 | 106.07916 | 36871 ft | 492 kts | 143° |
| 2026-05-01 14:38 | -4.13474 | 106.09925 | 36341 ft | 489 kts | 143° |
| 2026-05-01 14:38 | -4.16224 | 106.11900 | 35826 ft | 485 kts | 143° |
| 2026-05-01 14:39 | -4.18951 | 106.13855 | 35314 ft | 480 kts | 143° |
| 2026-05-01 14:39 | -4.21612 | 106.15773 | 34816 ft | 476 kts | 143° |
| 2026-05-01 14:39 | -4.24287 | 106.17706 | 34321 ft | 472 kts | 143° |
| 2026-05-01 14:39 | -4.26937 | 106.19616 | 33828 ft | 468 kts | 143° |
| 2026-05-01 14:40 | -4.29568 | 106.21509 | 33252 ft | 464 kts | 143° |
| 2026-05-01 14:40 | -4.32178 | 106.23388 | 32720 ft | 460 kts | 143° |
| 2026-05-01 14:40 | -4.34764 | 106.25254 | 32184 ft | 456 kts | 143° |
| 2026-05-01 14:40 | -4.37329 | 106.27103 | 31669 ft | 452 kts | 143° |
| 2026-05-01 14:41 | -4.39872 | 106.28935 | 31141 ft | 448 kts | 143° |
| 2026-05-01 14:41 | -4.42395 | 106.30753 | 30640 ft | 445 kts | 143° |
| 2026-05-01 14:41 | -4.44863 | 106.32533 | 30152 ft | 441 kts | 143° |
| 2026-05-01 14:41 | -4.47344 | 106.34322 | 29613 ft | 437 kts | 143° |
| 2026-05-01 14:42 | -4.49797 | 106.36090 | 29090 ft | 432 kts | 143° |
| 2026-05-01 14:42 | -4.52226 | 106.37842 | 28577 ft | 428 kts | 143° |
| 2026-05-01 14:42 | -4.54630 | 106.39575 | 28078 ft | 423 kts | 143° |
| 2026-05-01 14:42 | -4.57007 | 106.41290 | 27576 ft | 419 kts | 143° |
| 2026-05-01 14:43 | -4.59360 | 106.42987 | 27082 ft | 414 kts | 143° |
| 2026-05-01 14:43 | -4.61687 | 106.44666 | 26603 ft | 410 kts | 143° |
| 2026-05-01 14:43 | -4.63960 | 106.46305 | 26141 ft | 406 kts | 143° |
| 2026-05-01 14:43 | -4.66242 | 106.47951 | 25674 ft | 402 kts | 143° |
| 2026-05-01 14:44 | -4.68498 | 106.49579 | 25233 ft | 398 kts | 143° |
| 2026-05-01 14:44 | -4.72930 | 106.52777 | 24436 ft | 387 kts | 143° |
| 2026-05-01 14:44 | -4.75103 | 106.54346 | 24065 ft | 383 kts | 143° |
| 2026-05-01 14:45 | -4.77250 | 106.55895 | 23694 ft | 378 kts | 143° |
| 2026-05-01 14:45 | -4.81467 | 106.58939 | 22843 ft | 368 kts | 143° |
| 2026-05-01 14:45 | -4.83533 | 106.60430 | 22426 ft | 363 kts | 143° |
| 2026-05-01 14:46 | -4.85541 | 106.61877 | 22041 ft | 357 kts | 144° |
| 2026-05-01 14:46 | -4.89954 | 106.64055 | 21318 ft | 353 kts | 154° |
| 2026-05-01 14:46 | -4.92184 | 106.65082 | 20962 ft | 351 kts | 154° |
| 2026-05-01 14:47 | -4.94400 | 106.66097 | 20597 ft | 350 kts | 154° |
| 2026-05-01 14:47 | -4.96608 | 106.67103 | 20241 ft | 348 kts | 154° |
| 2026-05-01 14:47 | -4.98805 | 106.68105 | 19894 ft | 346 kts | 154° |
| 2026-05-01 14:48 | -5.03126 | 106.70080 | 19231 ft | 341 kts | 154° |
| 2026-05-01 14:48 | -5.05274 | 106.71062 | 18924 ft | 338 kts | 154° |
| 2026-05-01 14:48 | -5.09537 | 106.73010 | 18287 ft | 335 kts | 154° |
| 2026-05-01 14:49 | -5.13770 | 106.74945 | 17603 ft | 333 kts | 154° |
| 2026-05-01 14:49 | -5.17929 | 106.76846 | 16895 ft | 322 kts | 154° |
| 2026-05-01 14:50 | -5.20600 | 106.78056 | 16426 ft | 314 kts | 154° |
| 2026-05-01 14:50 | -5.25777 | 106.80398 | 15495 ft | 300 kts | 154° |
| 2026-05-01 14:51 | -5.27663 | 106.81253 | 15158 ft | 295 kts | 154° |
| 2026-05-01 14:51 | -5.31336 | 106.82916 | 14532 ft | 280 kts | 154° |
| 2026-05-01 14:52 | -5.34799 | 106.84485 | 13983 ft | 272 kts | 154° |
| 2026-05-01 14:52 | -5.36523 | 106.85267 | 13683 ft | 271 kts | 154° |
| 2026-05-01 14:52 | -5.39951 | 106.86820 | 13017 ft | 270 kts | 154° |
| 2026-05-01 14:53 | -5.41659 | 106.87594 | 12672 ft | 268 kts | 154° |
| 2026-05-01 14:53 | -5.43354 | 106.88362 | 12342 ft | 266 kts | 154° |
| 2026-05-01 14:53 | -5.45038 | 106.89125 | 12000 ft | 265 kts | 154° |
| 2026-05-01 14:53 | -5.46713 | 106.89874 | 11670 ft | 263 kts | 157° |
| 2026-05-01 14:54 | -5.48510 | 106.90156 | 11313 ft | 264 kts | 179° |
| 2026-05-01 14:54 | -5.50341 | 106.90128 | 10995 ft | 263 kts | 179° |
| 2026-05-01 14:54 | -5.52140 | 106.90096 | 10670 ft | 261 kts | 179° |
| 2026-05-01 14:54 | -5.53950 | 106.90068 | 10353 ft | 260 kts | 179° |
| 2026-05-01 14:55 | -5.55753 | 106.90042 | 10031 ft | 259 kts | 179° |
| 2026-05-01 14:55 | -5.56943 | 106.90025 | 9818 ft | 258 kts | 179° |
| 2026-05-01 14:55 | -5.59334 | 106.89990 | 9360 ft | 256 kts | 179° |
| 2026-05-01 14:55 | -5.61109 | 106.89964 | 9010 ft | 255 kts | 179° |
| 2026-05-01 14:56 | -5.62280 | 106.89946 | 8779 ft | 254 kts | 179° |
| 2026-05-01 14:56 | -5.64037 | 106.89920 | 8435 ft | 252 kts | 179° |
| 2026-05-01 14:56 | -5.65788 | 106.89895 | 8092 ft | 251 kts | 179° |
| 2026-05-01 14:56 | -5.68088 | 106.89861 | 7658 ft | 247 kts | 179° |
| 2026-05-01 14:57 | -5.69778 | 106.89835 | 7328 ft | 239 kts | 179° |
| 2026-05-01 14:57 | -5.72437 | 106.89795 | 6886 ft | 224 kts | 179° |
| 2026-05-01 14:57 | -5.73951 | 106.89763 | 6644 ft | 217 kts | 180° |
| 2026-05-01 14:58 | -5.75437 | 106.89729 | 6414 ft | 210 kts | 179° |
| 2026-05-01 14:58 | -5.76894 | 106.89698 | 6169 ft | 209 kts | 179° |
| 2026-05-01 14:58 | -5.78342 | 106.89669 | 5944 ft | 208 kts | 179° |
| 2026-05-01 14:58 | -5.79772 | 106.89639 | 5733 ft | 204 kts | 180° |
| 2026-05-01 14:59 | -5.81668 | 106.89599 | 5446 ft | 207 kts | 180° |
| 2026-05-01 14:59 | -5.82639 | 106.89578 | 5295 ft | 206 kts | 180° |
| 2026-05-01 14:59 | -5.84074 | 106.89548 | 5066 ft | 206 kts | 180° |
| 2026-05-01 14:59 | -5.85970 | 106.89508 | 4759 ft | 206 kts | 180° |
| 2026-05-01 15:00 | -5.88345 | 106.89458 | 4360 ft | 205 kts | 180° |
| 2026-05-01 15:00 | -5.89766 | 106.89428 | 4119 ft | 204 kts | 180° |
| 2026-05-01 15:00 | -5.91184 | 106.89398 | 3877 ft | 204 kts | 180° |
| 2026-05-01 15:01 | -5.92601 | 106.89368 | 3641 ft | 204 kts | 180° |
| 2026-05-01 15:01 | -5.94021 | 106.89338 | 3399 ft | 204 kts | 180° |
| 2026-05-01 15:01 | -5.95443 | 106.89297 | 3167 ft | 203 kts | 182° |
| 2026-05-01 15:01 | -5.96702 | 106.88776 | 2847 ft | 197 kts | 217° |
| 2026-05-01 15:02 | -5.97715 | 106.87896 | 2679 ft | 194 kts | 220° |
| 2026-05-01 15:02 | -5.98400 | 106.87297 | 2585 ft | 193 kts | 220° |
| 2026-05-01 15:02 | -5.99745 | 106.86130 | 2384 ft | 193 kts | 220° |
| 2026-05-01 15:02 | -6.00752 | 106.85259 | 2241 ft | 189 kts | 220° |
| 2026-05-01 15:03 | -6.02076 | 106.84114 | 2039 ft | 191 kts | 220° |
| 2026-05-01 15:03 | -6.02751 | 106.83529 | 1996 ft | 188 kts | 220° |
| 2026-05-01 15:03 | -6.03740 | 106.82652 | 1993 ft | 192 kts | 224° |
| 2026-05-01 15:03 | -6.04526 | 106.81583 | 1978 ft | 191 kts | 240° |
| 2026-05-01 15:04 | -6.05049 | 106.80379 | 1991 ft | 186 kts | 247° |
| 2026-05-01 15:04 | -6.05507 | 106.79253 | 1982 ft | 167 kts | 248° |
| 2026-05-01 15:04 | -6.05933 | 106.78182 | 1983 ft | 164 kts | 248° |
| 2026-05-01 15:04 | -6.06347 | 106.77138 | 1984 ft | 158 kts | 248° |
| 2026-05-01 15:05 | -6.06764 | 106.76090 | 1834 ft | 163 kts | 248° |
| 2026-05-01 15:05 | -6.07181 | 106.75040 | 1631 ft | 161 kts | 248° |
| 2026-05-01 15:05 | -6.07593 | 106.74001 | 1422 ft | 160 kts | 248° |
| 2026-05-01 15:05 | -6.08006 | 106.72961 | 1215 ft | 160 kts | 248° |
| 2026-05-01 15:06 | -6.08408 | 106.71947 | 1007 ft | 153 kts | 248° |
| 2026-05-01 15:06 | -6.08793 | 106.70975 | 842 ft | 151 kts | 248° |
| 2026-05-01 15:06 | -6.09175 | 106.70010 | 664 ft | 147 kts | 248° |
| 2026-05-01 15:06 | -6.09551 | 106.69062 | 483 ft | 144 kts | 247° |
| 2026-05-01 15:07 | -6.09919 | 106.68136 | 305 ft | 142 kts | 247° |
| 2026-05-01 15:07 | -6.10286 | 106.67215 | 113 ft | 141 kts | 248° |
| 2026-05-01 15:07 | -6.10589 | 106.66449 | 46 ft | 123 kts | 248° |
| 2026-05-01 15:07 | -6.10836 | 106.65844 | 45 ft | 60 kts | 248° |
| 2026-05-01 15:08 | -6.10949 | 106.65560 | 48 ft | 35 kts | 248° |
| 2026-05-01 15:08 | -6.11038 | 106.65336 | 46 ft | 33 kts | 248° |
| 2026-05-01 15:08 | -6.11120 | 106.65132 | 45 ft | 31 kts | 248° |
| 2026-05-01 15:08 | -6.11196 | 106.64942 | 45 ft | 25 kts | 246° |
| 2026-05-01 15:09 | -6.11284 | 106.64810 | 47 ft | 21 kts | 216° |
| 2026-05-01 15:09 | -6.11405 | 106.64724 | 46 ft | 14 kts | 206° |
| 2026-05-01 15:09 | -6.11484 | 106.64715 | 45 ft | 11 kts | 167° |
| 2026-05-01 15:09 | -6.11542 | 106.64759 | 44 ft | 9 kts | 113° |
| 2026-05-01 15:10 | -6.11534 | 106.64821 | 45 ft | 10 kts | 68° |
| 2026-05-01 15:10 | -6.11476 | 106.64968 | 45 ft | 13 kts | 68° |
| 2026-05-01 15:10 | -6.11441 | 106.65055 | 45 ft | 14 kts | 68° |
| 2026-05-01 15:11 | -6.11403 | 106.65151 | 44 ft | 16 kts | 68° |
| 2026-05-01 15:11 | -6.11316 | 106.65370 | 44 ft | 16 kts | 68° |
| 2026-05-01 15:11 | -6.11279 | 106.65462 | 44 ft | 15 kts | 68° |
| 2026-05-01 15:12 | -6.11241 | 106.65557 | 44 ft | 14 kts | 68° |
| 2026-05-01 15:12 | -6.11300 | 106.65642 | 44 ft | 7 kts | 158° |
| 2026-05-01 15:12 | -6.11350 | 106.65663 | 45 ft | 8 kts | 155° |
| 2026-05-01 15:13 | -6.11425 | 106.65823 | 40 ft | 11 kts | 98° |
| 2026-05-01 15:14 | -6.11536 | 106.65910 | 43 ft | 11 kts | 153° |
| 2026-05-01 15:14 | -6.11611 | 106.65947 | 42 ft | 13 kts | 155° |
| 2026-05-01 15:14 | -6.11773 | 106.66013 | 43 ft | 9 kts | 158° |
| 2026-05-01 15:15 | -6.11789 | 106.66097 | 43 ft | 7 kts | 72° |
| 2026-05-01 15:15 | -6.11799 | 106.66124 | 43 ft | 2 kts | 136° |
| 2026-05-01 15:16 | -6.11840 | 106.66145 | 43 ft | 5 kts | 158° |
| 2026-05-01 15:16 | -6.11869 | 106.66157 | 42 ft | 0 kts | 158° |